sensor_id;sensor_type;location;lat;lon;timestamp;P1;durP1;ratioP1;P2;durP2;ratioP2
41480;SDS011;27217;51.220;5.308;2022-09-16T00:02:21;5.93;;;2.50;;
41480;SDS011;27217;51.220;5.308;2022-09-16T00:04:47;11.43;;;2.28;;
41480;SDS011;27217;51.220;5.308;2022-09-16T00:07:13;9.15;;;2.60;;
41480;SDS011;27217;51.220;5.308;2022-09-16T00:09:39;7.20;;;1.77;;
41480;SDS011;27217;51.220;5.308;2022-09-16T00:12:06;10.98;;;2.25;;
41480;SDS011;27217;51.220;5.308;2022-09-16T00:14:32;13.35;;;2.40;;
41480;SDS011;27217;51.220;5.308;2022-09-16T00:16:58;14.00;;;2.13;;
41480;SDS011;27217;51.220;5.308;2022-09-16T00:19:24;7.32;;;1.85;;
41480;SDS011;27217;51.220;5.308;2022-09-16T00:21:50;9.40;;;1.92;;
41480;SDS011;27217;51.220;5.308;2022-09-16T00:24:15;11.20;;;1.80;;
41480;SDS011;27217;51.220;5.308;2022-09-16T00:26:42;7.88;;;1.77;;
41480;SDS011;27217;51.220;5.308;2022-09-16T00:29:07;11.48;;;2.28;;
41480;SDS011;27217;51.220;5.308;2022-09-16T00:31:33;7.13;;;1.60;;
41480;SDS011;27217;51.220;5.308;2022-09-16T00:34:00;9.55;;;1.50;;
41480;SDS011;27217;51.220;5.308;2022-09-16T00:36:26;14.27;;;1.75;;
41480;SDS011;27217;51.220;5.308;2022-09-16T00:38:53;8.77;;;1.75;;
41480;SDS011;27217;51.220;5.308;2022-09-16T00:41:23;9.77;;;2.10;;
41480;SDS011;27217;51.220;5.308;2022-09-16T00:44:04;4.18;;;1.85;;
41480;SDS011;27217;51.220;5.308;2022-09-16T00:46:37;10.18;;;1.77;;
41480;SDS011;27217;51.220;5.308;2022-09-16T00:49:15;3.40;;;1.50;;
41480;SDS011;27217;51.220;5.308;2022-09-16T00:51:42;5.60;;;1.40;;
41480;SDS011;27217;51.220;5.308;2022-09-16T00:54:12;9.93;;;2.42;;
41480;SDS011;27217;51.220;5.308;2022-09-16T00:56:40;8.02;;;2.42;;
41480;SDS011;27217;51.220;5.308;2022-09-16T00:59:23;7.85;;;1.88;;
41480;SDS011;27217;51.220;5.308;2022-09-16T01:01:52;7.95;;;1.45;;
41480;SDS011;27217;51.220;5.308;2022-09-16T01:04:22;15.07;;;1.92;;
41480;SDS011;27217;51.220;5.308;2022-09-16T01:06:57;7.80;;;1.60;;
41480;SDS011;27217;51.220;5.308;2022-09-16T01:09:24;10.15;;;2.13;;
41480;SDS011;27217;51.220;5.308;2022-09-16T01:11:51;5.88;;;2.08;;
41480;SDS011;27217;51.220;5.308;2022-09-16T01:14:17;8.23;;;1.70;;
41480;SDS011;27217;51.220;5.308;2022-09-16T01:25:01;5.20;;;2.25;;
41480;SDS011;27217;51.220;5.308;2022-09-16T01:36:57;11.48;;;2.35;;
41480;SDS011;27217;51.220;5.308;2022-09-16T01:39:29;14.60;;;2.78;;
41480;SDS011;27217;51.220;5.308;2022-09-16T01:42:17;9.43;;;1.90;;
41480;SDS011;27217;51.220;5.308;2022-09-16T01:44:59;9.82;;;1.90;;
41480;SDS011;27217;51.220;5.308;2022-09-16T01:50:45;12.60;;;2.67;;
41480;SDS011;27217;51.220;5.308;2022-09-16T01:53:36;10.25;;;1.90;;
41480;SDS011;27217;51.220;5.308;2022-09-16T01:58:42;11.25;;;2.08;;
41480;SDS011;27217;51.220;5.308;2022-09-16T02:01:23;6.90;;;1.85;;
41480;SDS011;27217;51.220;5.308;2022-09-16T02:04:03;5.22;;;2.00;;
41480;SDS011;27217;51.220;5.308;2022-09-16T02:06:34;17.38;;;1.88;;
41480;SDS011;27217;51.220;5.308;2022-09-16T02:09:09;14.52;;;2.00;;
41480;SDS011;27217;51.220;5.308;2022-09-16T02:11:45;10.25;;;2.70;;
41480;SDS011;27217;51.220;5.308;2022-09-16T02:16:53;8.85;;;1.80;;
41480;SDS011;27217;51.220;5.308;2022-09-16T02:19:31;6.03;;;1.58;;
41480;SDS011;27217;51.220;5.308;2022-09-16T02:22:07;10.43;;;2.05;;
41480;SDS011;27217;51.220;5.308;2022-09-16T02:24:37;10.52;;;1.50;;
41480;SDS011;27217;51.220;5.308;2022-09-16T02:27:06;8.57;;;1.65;;
41480;SDS011;27217;51.220;5.308;2022-09-16T02:29:45;18.33;;;1.88;;
41480;SDS011;27217;51.220;5.308;2022-09-16T02:32:18;17.77;;;2.28;;
41480;SDS011;27217;51.220;5.308;2022-09-16T02:34:47;7.55;;;1.50;;
41480;SDS011;27217;51.220;5.308;2022-09-16T02:37:29;8.27;;;2.00;;
41480;SDS011;27217;51.220;5.308;2022-09-16T02:40:04;8.18;;;1.95;;
41480;SDS011;27217;51.220;5.308;2022-09-16T02:42:36;7.30;;;1.98;;
41480;SDS011;27217;51.220;5.308;2022-09-16T02:45:02;3.28;;;1.50;;
41480;SDS011;27217;51.220;5.308;2022-09-16T02:50:16;10.60;;;1.77;;
41480;SDS011;27217;51.220;5.308;2022-09-16T02:52:58;12.30;;;1.98;;
41480;SDS011;27217;51.220;5.308;2022-09-16T02:57:57;7.32;;;1.80;;
41480;SDS011;27217;51.220;5.308;2022-09-16T03:00:23;10.18;;;1.70;;
41480;SDS011;27217;51.220;5.308;2022-09-16T03:02:49;8.43;;;1.48;;
41480;SDS011;27217;51.220;5.308;2022-09-16T03:05:17;30.00;;;2.13;;
41480;SDS011;27217;51.220;5.308;2022-09-16T03:07:43;11.13;;;1.48;;
41480;SDS011;27217;51.220;5.308;2022-09-16T03:10:10;6.55;;;1.52;;
41480;SDS011;27217;51.220;5.308;2022-09-16T03:26:39;15.00;;;2.05;;
41480;SDS011;27217;51.220;5.308;2022-09-16T03:29:16;9.77;;;1.30;;
41480;SDS011;27217;51.220;5.308;2022-09-16T03:37:36;3.85;;;1.30;;
41480;SDS011;27217;51.220;5.308;2022-09-16T03:40:08;6.85;;;1.50;;
41480;SDS011;27217;51.220;5.308;2022-09-16T03:42:40;7.00;;;1.67;;
41480;SDS011;27217;51.220;5.308;2022-09-16T03:45:09;24.30;;;1.50;;
41480;SDS011;27217;51.220;5.308;2022-09-16T03:47:42;4.30;;;1.23;;
41480;SDS011;27217;51.220;5.308;2022-09-16T03:50:10;8.00;;;1.55;;
41480;SDS011;27217;51.220;5.308;2022-09-16T03:52:36;11.15;;;1.83;;
41480;SDS011;27217;51.220;5.308;2022-09-16T03:55:02;12.35;;;1.52;;
41480;SDS011;27217;51.220;5.308;2022-09-16T03:57:28;4.03;;;1.33;;
41480;SDS011;27217;51.220;5.308;2022-09-16T03:59:54;4.47;;;1.45;;
41480;SDS011;27217;51.220;5.308;2022-09-16T04:02:20;6.45;;;1.17;;
41480;SDS011;27217;51.220;5.308;2022-09-16T04:04:46;3.35;;;1.13;;
41480;SDS011;27217;51.220;5.308;2022-09-16T04:07:12;6.35;;;1.00;;
41480;SDS011;27217;51.220;5.308;2022-09-16T04:09:37;11.05;;;1.33;;
41480;SDS011;27217;51.220;5.308;2022-09-16T04:12:03;7.03;;;1.60;;
41480;SDS011;27217;51.220;5.308;2022-09-16T04:14:31;6.18;;;1.77;;
41480;SDS011;27217;51.220;5.308;2022-09-16T04:16:58;11.65;;;1.35;;
41480;SDS011;27217;51.220;5.308;2022-09-16T04:19:24;2.38;;;1.17;;
41480;SDS011;27217;51.220;5.308;2022-09-16T04:21:49;10.13;;;2.35;;
41480;SDS011;27217;51.220;5.308;2022-09-16T04:24:15;4.80;;;1.15;;
41480;SDS011;27217;51.220;5.308;2022-09-16T04:26:41;12.10;;;1.50;;
41480;SDS011;27217;51.220;5.308;2022-09-16T04:29:08;6.25;;;1.10;;
41480;SDS011;27217;51.220;5.308;2022-09-16T04:31:34;8.60;;;2.13;;
41480;SDS011;27217;51.220;5.308;2022-09-16T04:34:00;11.93;;;1.42;;
41480;SDS011;27217;51.220;5.308;2022-09-16T04:36:27;4.85;;;1.02;;
41480;SDS011;27217;51.220;5.308;2022-09-16T04:38:53;9.05;;;1.25;;
41480;SDS011;27217;51.220;5.308;2022-09-16T04:41:20;2.03;;;0.98;;
41480;SDS011;27217;51.220;5.308;2022-09-16T04:43:52;9.48;;;1.20;;
41480;SDS011;27217;51.220;5.308;2022-09-16T04:46:20;9.07;;;1.17;;
41480;SDS011;27217;51.220;5.308;2022-09-16T04:48:49;5.45;;;1.30;;
41480;SDS011;27217;51.220;5.308;2022-09-16T04:51:16;9.80;;;1.50;;
41480;SDS011;27217;51.220;5.308;2022-09-16T04:53:43;8.80;;;1.15;;
41480;SDS011;27217;51.220;5.308;2022-09-16T04:56:12;7.57;;;0.95;;
41480;SDS011;27217;51.220;5.308;2022-09-16T04:58:43;3.80;;;1.02;;
41480;SDS011;27217;51.220;5.308;2022-09-16T05:01:14;5.10;;;0.63;;
41480;SDS011;27217;51.220;5.308;2022-09-16T05:03:51;7.13;;;0.90;;
41480;SDS011;27217;51.220;5.308;2022-09-16T05:06:20;3.50;;;0.70;;
41480;SDS011;27217;51.220;5.308;2022-09-16T05:08:48;6.00;;;1.10;;
41480;SDS011;27217;51.220;5.308;2022-09-16T05:11:16;5.25;;;1.10;;
41480;SDS011;27217;51.220;5.308;2022-09-16T05:13:44;3.78;;;1.13;;
41480;SDS011;27217;51.220;5.308;2022-09-16T05:16:12;12.07;;;1.52;;
41480;SDS011;27217;51.220;5.308;2022-09-16T05:18:40;6.97;;;1.17;;
41480;SDS011;27217;51.220;5.308;2022-09-16T05:21:08;8.35;;;1.60;;
41480;SDS011;27217;51.220;5.308;2022-09-16T05:23:36;7.07;;;1.73;;
41480;SDS011;27217;51.220;5.308;2022-09-16T05:28:29;3.72;;;0.95;;
41480;SDS011;27217;51.220;5.308;2022-09-16T05:31:05;5.85;;;1.38;;
41480;SDS011;27217;51.220;5.308;2022-09-16T05:33:37;6.38;;;1.27;;
41480;SDS011;27217;51.220;5.308;2022-09-16T05:36:08;8.50;;;1.60;;
41480;SDS011;27217;51.220;5.308;2022-09-16T05:38:36;5.35;;;0.88;;
41480;SDS011;27217;51.220;5.308;2022-09-16T05:41:02;13.05;;;1.48;;
41480;SDS011;27217;51.220;5.308;2022-09-16T05:43:29;4.18;;;1.25;;
41480;SDS011;27217;51.220;5.308;2022-09-16T05:45:59;5.82;;;1.10;;
41480;SDS011;27217;51.220;5.308;2022-09-16T05:48:25;3.15;;;0.98;;
41480;SDS011;27217;51.220;5.308;2022-09-16T05:53:25;4.38;;;1.20;;
41480;SDS011;27217;51.220;5.308;2022-09-16T05:55:53;13.95;;;1.88;;
41480;SDS011;27217;51.220;5.308;2022-09-16T05:58:33;5.78;;;1.20;;
41480;SDS011;27217;51.220;5.308;2022-09-16T06:01:00;8.57;;;1.35;;
41480;SDS011;27217;51.220;5.308;2022-09-16T06:03:27;8.57;;;1.15;;
41480;SDS011;27217;51.220;5.308;2022-09-16T06:08:56;2.72;;;1.25;;
41480;SDS011;27217;51.220;5.308;2022-09-16T06:11:23;6.80;;;1.98;;
41480;SDS011;27217;51.220;5.308;2022-09-16T06:13:51;6.15;;;0.80;;
41480;SDS011;27217;51.220;5.308;2022-09-16T06:16:21;7.95;;;1.65;;
41480;SDS011;27217;51.220;5.308;2022-09-16T06:18:50;5.15;;;1.52;;
41480;SDS011;27217;51.220;5.308;2022-09-16T06:21:17;10.18;;;1.23;;
41480;SDS011;27217;51.220;5.308;2022-09-16T06:23:43;4.63;;;1.40;;
41480;SDS011;27217;51.220;5.308;2022-09-16T06:26:27;11.10;;;1.75;;
41480;SDS011;27217;51.220;5.308;2022-09-16T06:28:53;8.20;;;1.30;;
41480;SDS011;27217;51.220;5.308;2022-09-16T06:31:21;5.22;;;1.20;;
41480;SDS011;27217;51.220;5.308;2022-09-16T06:33:48;6.82;;;1.20;;
41480;SDS011;27217;51.220;5.308;2022-09-16T06:36:16;7.28;;;1.75;;
41480;SDS011;27217;51.220;5.308;2022-09-16T06:38:44;11.27;;;1.60;;
41480;SDS011;27217;51.220;5.308;2022-09-16T06:41:11;6.25;;;1.52;;
41480;SDS011;27217;51.220;5.308;2022-09-16T06:43:38;8.98;;;1.75;;
41480;SDS011;27217;51.220;5.308;2022-09-16T06:46:05;7.68;;;1.75;;
41480;SDS011;27217;51.220;5.308;2022-09-16T06:48:37;9.10;;;1.40;;
41480;SDS011;27217;51.220;5.308;2022-09-16T06:51:15;2.92;;;1.20;;
41480;SDS011;27217;51.220;5.308;2022-09-16T06:53:46;10.43;;;1.50;;
41480;SDS011;27217;51.220;5.308;2022-09-16T06:56:13;5.68;;;1.52;;
41480;SDS011;27217;51.220;5.308;2022-09-16T06:58:45;6.07;;;1.30;;
41480;SDS011;27217;51.220;5.308;2022-09-16T07:01:30;6.20;;;1.95;;
41480;SDS011;27217;51.220;5.308;2022-09-16T07:03:56;15.40;;;2.17;;
41480;SDS011;27217;51.220;5.308;2022-09-16T07:06:23;6.18;;;1.33;;
41480;SDS011;27217;51.220;5.308;2022-09-16T07:08:52;7.13;;;1.50;;
41480;SDS011;27217;51.220;5.308;2022-09-16T07:11:20;5.80;;;1.63;;
41480;SDS011;27217;51.220;5.308;2022-09-16T07:13:49;9.68;;;1.95;;
41480;SDS011;27217;51.220;5.308;2022-09-16T07:18:48;8.70;;;1.40;;
41480;SDS011;27217;51.220;5.308;2022-09-16T07:21:22;5.03;;;1.50;;
41480;SDS011;27217;51.220;5.308;2022-09-16T07:23:53;5.35;;;1.10;;
41480;SDS011;27217;51.220;5.308;2022-09-16T07:26:22;5.22;;;1.17;;
41480;SDS011;27217;51.220;5.308;2022-09-16T07:28:59;5.75;;;1.23;;
41480;SDS011;27217;51.220;5.308;2022-09-16T07:31:27;12.57;;;1.55;;
41480;SDS011;27217;51.220;5.308;2022-09-16T07:33:57;4.40;;;0.85;;
41480;SDS011;27217;51.220;5.308;2022-09-16T07:36:26;4.25;;;1.15;;
41480;SDS011;27217;51.220;5.308;2022-09-16T07:38:59;5.30;;;1.00;;
41480;SDS011;27217;51.220;5.308;2022-09-16T07:41:27;5.38;;;1.10;;
41480;SDS011;27217;51.220;5.308;2022-09-16T07:43:54;5.53;;;1.20;;
41480;SDS011;27217;51.220;5.308;2022-09-16T07:46:23;9.98;;;1.60;;
41480;SDS011;27217;51.220;5.308;2022-09-16T07:48:50;9.38;;;1.55;;
41480;SDS011;27217;51.220;5.308;2022-09-16T07:51:17;5.70;;;1.48;;
41480;SDS011;27217;51.220;5.308;2022-09-16T07:53:46;10.30;;;1.85;;
41480;SDS011;27217;51.220;5.308;2022-09-16T07:56:17;11.63;;;1.95;;
41480;SDS011;27217;51.220;5.308;2022-09-16T07:58:45;7.45;;;1.50;;
41480;SDS011;27217;51.220;5.308;2022-09-16T08:01:12;9.52;;;1.90;;
41480;SDS011;27217;51.220;5.308;2022-09-16T08:03:41;8.98;;;1.60;;
41480;SDS011;27217;51.220;5.308;2022-09-16T08:06:17;2.60;;;1.40;;
41480;SDS011;27217;51.220;5.308;2022-09-16T08:08:52;9.90;;;1.87;;
41480;SDS011;27217;51.220;5.308;2022-09-16T08:11:28;9.30;;;1.88;;
41480;SDS011;27217;51.220;5.308;2022-09-16T08:13:56;14.07;;;1.73;;
41480;SDS011;27217;51.220;5.308;2022-09-16T08:16:23;5.80;;;1.60;;
41480;SDS011;27217;51.220;5.308;2022-09-16T08:18:50;9.05;;;2.20;;
41480;SDS011;27217;51.220;5.308;2022-09-16T08:21:22;7.57;;;1.95;;
41480;SDS011;27217;51.220;5.308;2022-09-16T08:23:50;7.95;;;1.52;;
41480;SDS011;27217;51.220;5.308;2022-09-16T08:26:16;4.82;;;1.23;;
41480;SDS011;27217;51.220;5.308;2022-09-16T08:28:43;8.68;;;1.40;;
41480;SDS011;27217;51.220;5.308;2022-09-16T08:31:10;9.60;;;1.95;;
41480;SDS011;27217;51.220;5.308;2022-09-16T08:33:40;6.63;;;1.58;;
41480;SDS011;27217;51.220;5.308;2022-09-16T08:36:08;5.45;;;1.42;;
41480;SDS011;27217;51.220;5.308;2022-09-16T08:38:44;7.97;;;1.60;;
41480;SDS011;27217;51.220;5.308;2022-09-16T08:43:48;8.52;;;1.42;;
41480;SDS011;27217;51.220;5.308;2022-09-16T08:51:46;7.13;;;2.17;;
41480;SDS011;27217;51.220;5.308;2022-09-16T08:57:04;8.38;;;2.08;;
41480;SDS011;27217;51.220;5.308;2022-09-16T08:59:35;8.00;;;1.35;;
41480;SDS011;27217;51.220;5.308;2022-09-16T09:04:35;3.17;;;1.33;;
41480;SDS011;27217;51.220;5.308;2022-09-16T09:07:14;3.58;;;1.20;;
41480;SDS011;27217;51.220;5.308;2022-09-16T09:10:02;3.35;;;1.02;;
41480;SDS011;27217;51.220;5.308;2022-09-16T09:13:03;10.05;;;1.23;;
41480;SDS011;27217;51.220;5.308;2022-09-16T09:15:57;9.40;;;1.63;;
41480;SDS011;27217;51.220;5.308;2022-09-16T09:18:42;7.63;;;2.45;;
41480;SDS011;27217;51.220;5.308;2022-09-16T09:21:16;7.13;;;1.25;;
41480;SDS011;27217;51.220;5.308;2022-09-16T09:23:57;6.13;;;1.27;;
41480;SDS011;27217;51.220;5.308;2022-09-16T09:26:49;10.55;;;1.92;;
41480;SDS011;27217;51.220;5.308;2022-09-16T09:29:30;2.63;;;1.40;;
41480;SDS011;27217;51.220;5.308;2022-09-16T09:34:57;11.02;;;2.85;;
41480;SDS011;27217;51.220;5.308;2022-09-16T09:46:01;7.47;;;1.92;;
41480;SDS011;27217;51.220;5.308;2022-09-16T09:48:45;6.82;;;2.15;;
41480;SDS011;27217;51.220;5.308;2022-09-16T09:54:00;10.27;;;2.42;;
41480;SDS011;27217;51.220;5.308;2022-09-16T09:56:39;4.40;;;1.45;;
41480;SDS011;27217;51.220;5.308;2022-09-16T10:02:16;5.68;;;2.10;;
41480;SDS011;27217;51.220;5.308;2022-09-16T10:04:43;9.82;;;2.15;;
41480;SDS011;27217;51.220;5.308;2022-09-16T10:07:13;8.23;;;1.80;;
41480;SDS011;27217;51.220;5.308;2022-09-16T10:09:48;6.97;;;1.67;;
41480;SDS011;27217;51.220;5.308;2022-09-16T10:12:25;4.47;;;2.35;;
41480;SDS011;27217;51.220;5.308;2022-09-16T10:14:52;6.18;;;0.90;;
41480;SDS011;27217;51.220;5.308;2022-09-16T10:17:18;4.03;;;1.00;;
41480;SDS011;27217;51.220;5.308;2022-09-16T10:19:56;2.95;;;1.02;;
41480;SDS011;27217;51.220;5.308;2022-09-16T10:22:30;6.00;;;0.90;;
41480;SDS011;27217;51.220;5.308;2022-09-16T10:24:59;3.22;;;0.65;;
41480;SDS011;27217;51.220;5.308;2022-09-16T10:27:53;3.97;;;0.70;;
41480;SDS011;27217;51.220;5.308;2022-09-16T10:30:25;3.28;;;1.15;;
41480;SDS011;27217;51.220;5.308;2022-09-16T10:35:20;2.72;;;0.70;;
41480;SDS011;27217;51.220;5.308;2022-09-16T10:37:52;1.83;;;0.80;;
41480;SDS011;27217;51.220;5.308;2022-09-16T10:40:37;4.28;;;0.82;;
41480;SDS011;27217;51.220;5.308;2022-09-16T10:43:05;6.18;;;1.83;;
41480;SDS011;27217;51.220;5.308;2022-09-16T10:45:43;4.53;;;0.75;;
41480;SDS011;27217;51.220;5.308;2022-09-16T10:48:16;4.28;;;1.08;;
41480;SDS011;27217;51.220;5.308;2022-09-16T10:50:51;4.75;;;0.88;;
41480;SDS011;27217;51.220;5.308;2022-09-16T10:53:34;5.47;;;0.80;;
41480;SDS011;27217;51.220;5.308;2022-09-16T10:56:04;5.20;;;0.82;;
41480;SDS011;27217;51.220;5.308;2022-09-16T10:58:47;2.20;;;1.08;;
41480;SDS011;27217;51.220;5.308;2022-09-16T11:04:26;7.07;;;1.48;;
41480;SDS011;27217;51.220;5.308;2022-09-16T11:07:08;6.43;;;1.27;;
41480;SDS011;27217;51.220;5.308;2022-09-16T11:10:19;5.45;;;1.42;;
41480;SDS011;27217;51.220;5.308;2022-09-16T11:13:11;5.60;;;1.20;;
41480;SDS011;27217;51.220;5.308;2022-09-16T11:29:46;6.10;;;0.90;;
41480;SDS011;27217;51.220;5.308;2022-09-16T11:32:36;2.13;;;0.88;;
41480;SDS011;27217;51.220;5.308;2022-09-16T11:43:40;1.65;;;1.08;;
41480;SDS011;27217;51.220;5.308;2022-09-16T11:49:19;2.30;;;0.60;;
41480;SDS011;27217;51.220;5.308;2022-09-16T11:57:20;5.90;;;0.50;;
41480;SDS011;27217;51.220;5.308;2022-09-16T11:59:59;2.00;;;0.47;;
41480;SDS011;27217;51.220;5.308;2022-09-16T12:02:39;3.20;;;0.70;;
41480;SDS011;27217;51.220;5.308;2022-09-16T12:05:18;3.25;;;0.75;;
41480;SDS011;27217;51.220;5.308;2022-09-16T12:07:51;1.95;;;0.52;;
41480;SDS011;27217;51.220;5.308;2022-09-16T12:13:05;2.38;;;0.38;;
41480;SDS011;27217;51.220;5.308;2022-09-16T12:15:41;1.40;;;0.40;;
41480;SDS011;27217;51.220;5.308;2022-09-16T12:18:21;4.00;;;0.50;;
41480;SDS011;27217;51.220;5.308;2022-09-16T12:21:07;3.45;;;0.65;;
41480;SDS011;27217;51.220;5.308;2022-09-16T12:23:39;3.67;;;0.73;;
41480;SDS011;27217;51.220;5.308;2022-09-16T12:26:53;3.47;;;0.52;;
41480;SDS011;27217;51.220;5.308;2022-09-16T12:29:07;3.70;;;0.70;;
41480;SDS011;27217;51.220;5.308;2022-09-16T12:32:07;2.50;;;0.40;;
41480;SDS011;27217;51.220;5.308;2022-09-16T12:34:41;6.22;;;0.85;;
41480;SDS011;27217;51.220;5.308;2022-09-16T12:37:34;4.85;;;0.57;;
41480;SDS011;27217;51.220;5.308;2022-09-16T12:40:11;5.40;;;1.13;;
41480;SDS011;27217;51.220;5.308;2022-09-16T12:48:45;1.00;;;0.52;;
41480;SDS011;27217;51.220;5.308;2022-09-16T12:51:47;2.20;;;0.60;;
41480;SDS011;27217;51.220;5.308;2022-09-16T12:54:58;1.77;;;0.60;;
41480;SDS011;27217;51.220;5.308;2022-09-16T13:00:03;3.85;;;0.35;;
41480;SDS011;27217;51.220;5.308;2022-09-16T13:02:40;5.30;;;0.68;;
41480;SDS011;27217;51.220;5.308;2022-09-16T13:05:34;2.47;;;0.52;;
41480;SDS011;27217;51.220;5.308;2022-09-16T13:08:17;2.22;;;0.50;;
41480;SDS011;27217;51.220;5.308;2022-09-16T13:10:58;0.90;;;0.47;;
41480;SDS011;27217;51.220;5.308;2022-09-16T13:13:38;1.58;;;0.60;;
41480;SDS011;27217;51.220;5.308;2022-09-16T13:16:07;2.10;;;0.40;;
41480;SDS011;27217;51.220;5.308;2022-09-16T13:18:38;7.43;;;0.88;;
41480;SDS011;27217;51.220;5.308;2022-09-16T13:21:11;1.33;;;0.65;;
41480;SDS011;27217;51.220;5.308;2022-09-16T13:23:56;2.50;;;0.65;;
41480;SDS011;27217;51.220;5.308;2022-09-16T13:26:43;1.77;;;0.80;;
41480;SDS011;27217;51.220;5.308;2022-09-16T13:37:44;5.35;;;0.70;;
41480;SDS011;27217;51.220;5.308;2022-09-16T13:40:17;1.63;;;0.50;;
41480;SDS011;27217;51.220;5.308;2022-09-16T13:42:48;2.42;;;0.60;;
41480;SDS011;27217;51.220;5.308;2022-09-16T13:48:00;2.25;;;0.73;;
41480;SDS011;27217;51.220;5.308;2022-09-16T13:50:40;2.28;;;0.52;;
41480;SDS011;27217;51.220;5.308;2022-09-16T13:53:08;3.55;;;0.70;;
41480;SDS011;27217;51.220;5.308;2022-09-16T13:55:55;3.40;;;0.75;;
41480;SDS011;27217;51.220;5.308;2022-09-16T13:58:59;3.35;;;0.55;;
41480;SDS011;27217;51.220;5.308;2022-09-16T14:04:33;3.72;;;0.60;;
41480;SDS011;27217;51.220;5.308;2022-09-16T14:07:21;1.98;;;0.52;;
41480;SDS011;27217;51.220;5.308;2022-09-16T14:09:59;3.65;;;0.80;;
41480;SDS011;27217;51.220;5.308;2022-09-16T14:12:53;2.78;;;0.60;;
41480;SDS011;27217;51.220;5.308;2022-09-16T14:15:26;4.00;;;1.13;;
41480;SDS011;27217;51.220;5.308;2022-09-16T14:17:57;2.60;;;0.50;;
41480;SDS011;27217;51.220;5.308;2022-09-16T14:20:25;1.88;;;0.63;;
41480;SDS011;27217;51.220;5.308;2022-09-16T14:23:03;3.28;;;0.90;;
41480;SDS011;27217;51.220;5.308;2022-09-16T14:25:41;1.73;;;0.73;;
41480;SDS011;27217;51.220;5.308;2022-09-16T14:28:08;5.47;;;0.85;;
41480;SDS011;27217;51.220;5.308;2022-09-16T14:30:34;3.72;;;0.75;;
41480;SDS011;27217;51.220;5.308;2022-09-16T14:33:01;9.25;;;1.23;;
41480;SDS011;27217;51.220;5.308;2022-09-16T14:35:27;2.75;;;0.80;;
41480;SDS011;27217;51.220;5.308;2022-09-16T14:37:58;3.13;;;0.77;;
41480;SDS011;27217;51.220;5.308;2022-09-16T14:40:28;4.93;;;1.20;;
41480;SDS011;27217;51.220;5.308;2022-09-16T14:42:55;5.13;;;1.52;;
41480;SDS011;27217;51.220;5.308;2022-09-16T14:45:24;2.13;;;0.70;;
41480;SDS011;27217;51.220;5.308;2022-09-16T14:47:52;4.43;;;1.10;;
41480;SDS011;27217;51.220;5.308;2022-09-16T14:50:22;16.55;;;1.80;;
41480;SDS011;27217;51.220;5.308;2022-09-16T14:53:01;4.55;;;1.25;;
41480;SDS011;27217;51.220;5.308;2022-09-16T14:55:30;5.18;;;1.23;;
41480;SDS011;27217;51.220;5.308;2022-09-16T14:58:00;7.18;;;1.92;;
41480;SDS011;27217;51.220;5.308;2022-09-16T15:01:13;4.43;;;1.27;;
41480;SDS011;27217;51.220;5.308;2022-09-16T15:03:22;8.10;;;1.20;;
41480;SDS011;27217;51.220;5.308;2022-09-16T15:05:57;2.30;;;1.02;;
41480;SDS011;27217;51.220;5.308;2022-09-16T15:08:42;5.57;;;1.55;;
41480;SDS011;27217;51.220;5.308;2022-09-16T15:11:14;4.85;;;1.10;;
41480;SDS011;27217;51.220;5.308;2022-09-16T15:13:43;3.45;;;1.02;;
41480;SDS011;27217;51.220;5.308;2022-09-16T15:16:11;6.40;;;1.58;;
41480;SDS011;27217;51.220;5.308;2022-09-16T15:18:43;2.67;;;0.70;;
41480;SDS011;27217;51.220;5.308;2022-09-16T15:21:25;6.20;;;1.55;;
41480;SDS011;27217;51.220;5.308;2022-09-16T15:23:58;10.90;;;1.35;;
41480;SDS011;27217;51.220;5.308;2022-09-16T15:26:28;2.38;;;1.17;;
41480;SDS011;27217;51.220;5.308;2022-09-16T15:31:43;1.83;;;0.70;;
41480;SDS011;27217;51.220;5.308;2022-09-16T15:36:46;1.23;;;0.50;;
41480;SDS011;27217;51.220;5.308;2022-09-16T15:42:17;2.78;;;0.80;;
41480;SDS011;27217;51.220;5.308;2022-09-16T15:44:46;5.78;;;0.85;;
41480;SDS011;27217;51.220;5.308;2022-09-16T15:47:23;4.07;;;0.63;;
41480;SDS011;27217;51.220;5.308;2022-09-16T15:49:52;6.47;;;0.80;;
41480;SDS011;27217;51.220;5.308;2022-09-16T15:52:24;3.67;;;1.13;;
41480;SDS011;27217;51.220;5.308;2022-09-16T15:54:52;3.33;;;1.25;;
41480;SDS011;27217;51.220;5.308;2022-09-16T15:57:29;3.80;;;0.60;;
41480;SDS011;27217;51.220;5.308;2022-09-16T16:00:07;3.63;;;1.08;;
41480;SDS011;27217;51.220;5.308;2022-09-16T16:02:40;3.35;;;1.48;;
41480;SDS011;27217;51.220;5.308;2022-09-16T16:05:27;4.72;;;0.93;;
41480;SDS011;27217;51.220;5.308;2022-09-16T16:07:59;4.70;;;1.67;;
41480;SDS011;27217;51.220;5.308;2022-09-16T16:10:27;4.43;;;1.38;;
41480;SDS011;27217;51.220;5.308;2022-09-16T16:12:58;4.70;;;1.02;;
41480;SDS011;27217;51.220;5.308;2022-09-16T16:15:29;4.30;;;1.27;;
41480;SDS011;27217;51.220;5.308;2022-09-16T16:18:00;5.15;;;1.25;;
41480;SDS011;27217;51.220;5.308;2022-09-16T16:20:29;2.83;;;1.08;;
41480;SDS011;27217;51.220;5.308;2022-09-16T16:22:58;7.38;;;1.48;;
41480;SDS011;27217;51.220;5.308;2022-09-16T16:25:24;4.25;;;1.02;;
41480;SDS011;27217;51.220;5.308;2022-09-16T16:27:51;2.58;;;0.73;;
41480;SDS011;27217;51.220;5.308;2022-09-16T16:30:17;4.28;;;0.90;;
41480;SDS011;27217;51.220;5.308;2022-09-16T16:32:43;3.58;;;1.33;;
41480;SDS011;27217;51.220;5.308;2022-09-16T16:35:09;4.40;;;0.60;;
41480;SDS011;27217;51.220;5.308;2022-09-16T16:37:36;4.88;;;0.75;;
41480;SDS011;27217;51.220;5.308;2022-09-16T16:40:05;2.30;;;0.60;;
41480;SDS011;27217;51.220;5.308;2022-09-16T16:42:32;4.23;;;1.27;;
41480;SDS011;27217;51.220;5.308;2022-09-16T16:44:59;3.70;;;1.05;;
41480;SDS011;27217;51.220;5.308;2022-09-16T16:47:25;4.50;;;0.75;;
41480;SDS011;27217;51.220;5.308;2022-09-16T16:49:51;4.07;;;1.25;;
41480;SDS011;27217;51.220;5.308;2022-09-16T16:52:17;3.88;;;1.33;;
41480;SDS011;27217;51.220;5.308;2022-09-16T16:54:43;8.23;;;1.00;;
41480;SDS011;27217;51.220;5.308;2022-09-16T16:57:10;4.45;;;1.08;;
41480;SDS011;27217;51.220;5.308;2022-09-16T16:59:37;3.17;;;1.30;;
41480;SDS011;27217;51.220;5.308;2022-09-16T17:02:03;9.35;;;1.83;;
41480;SDS011;27217;51.220;5.308;2022-09-16T17:04:29;16.27;;;1.73;;
41480;SDS011;27217;51.220;5.308;2022-09-16T17:06:55;12.23;;;2.42;;
41480;SDS011;27217;51.220;5.308;2022-09-16T17:09:21;3.33;;;0.80;;
41480;SDS011;27217;51.220;5.308;2022-09-16T17:11:55;4.45;;;0.90;;
41480;SDS011;27217;51.220;5.308;2022-09-16T17:14:23;4.18;;;1.13;;
41480;SDS011;27217;51.220;5.308;2022-09-16T17:16:50;3.33;;;0.90;;
41480;SDS011;27217;51.220;5.308;2022-09-16T17:19:17;4.18;;;1.08;;
41480;SDS011;27217;51.220;5.308;2022-09-16T17:21:44;10.07;;;1.38;;
41480;SDS011;27217;51.220;5.308;2022-09-16T17:24:11;3.50;;;0.68;;
41480;SDS011;27217;51.220;5.308;2022-09-16T17:26:37;7.93;;;0.90;;
41480;SDS011;27217;51.220;5.308;2022-09-16T17:29:03;5.88;;;1.40;;
41480;SDS011;27217;51.220;5.308;2022-09-16T17:31:30;4.03;;;1.05;;
41480;SDS011;27217;51.220;5.308;2022-09-16T17:33:59;8.88;;;0.60;;
41480;SDS011;27217;51.220;5.308;2022-09-16T17:36:30;3.17;;;0.90;;
41480;SDS011;27217;51.220;5.308;2022-09-16T17:38:58;4.88;;;1.85;;
41480;SDS011;27217;51.220;5.308;2022-09-16T17:41:29;6.35;;;1.25;;
41480;SDS011;27217;51.220;5.308;2022-09-16T17:43:55;4.53;;;1.50;;
41480;SDS011;27217;51.220;5.308;2022-09-16T17:46:22;3.30;;;1.20;;
41480;SDS011;27217;51.220;5.308;2022-09-16T17:48:51;6.18;;;1.35;;
41480;SDS011;27217;51.220;5.308;2022-09-16T17:51:18;6.70;;;0.75;;
41480;SDS011;27217;51.220;5.308;2022-09-16T17:53:45;8.75;;;0.80;;
41480;SDS011;27217;51.220;5.308;2022-09-16T17:56:13;9.23;;;1.75;;
41480;SDS011;27217;51.220;5.308;2022-09-16T17:58:43;4.78;;;0.90;;